Main page
METAR-TAF:

METAR-TAF

Airports :

Cabo San Lucas International Airport

Cabo San Lucas, Mexico

latitude: 22-56-51N, longitude: 109-56-13W, elevation: 210 m

Current weather observation

The report was made 1 hour and 8 minutes ago, at 12:55 UTC
Wind 10 kt from the West/Northwest
Temperature 19°C
Humidity 46%
Pressure 1019 hPa
Visibility: 16.1 km
Clear sky

METAR: MMSL 291255Z 30010KT 10SM SKC 19/07 A3008 RMK AC RTS

Time: 07:03 (14:03 UTC)

Forecast

The report was made 9 hours and 20 minutes ago, at 04:43 UTC
Forecast valid from 29 at 06 UTC to 01 at 06 UTC
Wind 5 kt from the West
Visibility: 9.7 km
Clear sky
haze
From 29 at 1800 UTC
Wind 10 kt from the South/Southeast
Visibility: 10 km
Clear sky
From 01 at 0300 UTC
Wind 5 kt from the Southeast
Visibility: 9.7 km
Clear sky
haze

TAF: MMSL 290443Z 2906/0106 26005KT 6SM HZ SKC FM291800 16010KT P6SM SKC FM010300 13005KT 6SM HZ SKC

Weather observations and forecasts of more than 4000 airports (METAR and TAF reports).

The available stations are represented by yellow and red dots on the map.

Hover mouse over dot to see the name of the station.

Then click to see weather observations and forecasts.

To change the map : click on the green buttons with a black cross to zoom in, on the green button with a dash to zoom out, or on the green arrows for adjacent maps.


METAR-TAF: